sensor_id;sensor_type;location;lat;lon;timestamp;P1;durP1;ratioP1;P2;durP2;ratioP2
16033;SDS011;8121;51.418;6.998;2024-01-15T00:02:12;18.00;;;9.50;;
16033;SDS011;8121;51.418;6.998;2024-01-15T00:07:15;27.87;;;12.77;;
16033;SDS011;8121;51.418;6.998;2024-01-15T00:12:16;32.77;;;14.70;;
16033;SDS011;8121;51.418;6.998;2024-01-15T00:17:17;21.23;;;10.10;;
16033;SDS011;8121;51.418;6.998;2024-01-15T00:22:20;28.97;;;15.17;;
16033;SDS011;8121;51.418;6.998;2024-01-15T00:27:22;29.80;;;13.23;;
16033;SDS011;8121;51.418;6.998;2024-01-15T00:32:23;25.57;;;11.93;;
16033;SDS011;8121;51.418;6.998;2024-01-15T00:37:26;23.67;;;12.90;;
16033;SDS011;8121;51.418;6.998;2024-01-15T00:42:28;29.30;;;13.70;;
16033;SDS011;8121;51.418;6.998;2024-01-15T00:47:29;28.43;;;12.97;;
16033;SDS011;8121;51.418;6.998;2024-01-15T00:52:32;16.73;;;7.73;;
16033;SDS011;8121;51.418;6.998;2024-01-15T00:57:34;13.50;;;8.43;;
16033;SDS011;8121;51.418;6.998;2024-01-15T01:02:35;24.90;;;11.17;;
16033;SDS011;8121;51.418;6.998;2024-01-15T01:07:38;24.73;;;11.40;;
16033;SDS011;8121;51.418;6.998;2024-01-15T01:12:40;21.37;;;11.63;;
16033;SDS011;8121;51.418;6.998;2024-01-15T01:17:41;29.63;;;10.30;;
16033;SDS011;8121;51.418;6.998;2024-01-15T01:22:44;23.57;;;10.67;;
16033;SDS011;8121;51.418;6.998;2024-01-15T01:27:46;22.40;;;9.87;;
16033;SDS011;8121;51.418;6.998;2024-01-15T01:32:47;27.93;;;13.03;;
16033;SDS011;8121;51.418;6.998;2024-01-15T01:37:50;18.93;;;9.57;;
16033;SDS011;8121;51.418;6.998;2024-01-15T01:42:52;20.30;;;11.20;;
16033;SDS011;8121;51.418;6.998;2024-01-15T01:47:54;14.50;;;7.03;;
16033;SDS011;8121;51.418;6.998;2024-01-15T01:52:56;22.40;;;11.20;;
16033;SDS011;8121;51.418;6.998;2024-01-15T01:57:58;11.70;;;7.00;;
16033;SDS011;8121;51.418;6.998;2024-01-15T02:03:00;11.90;;;7.70;;
16033;SDS011;8121;51.418;6.998;2024-01-15T02:08:05;25.47;;;12.50;;
16033;SDS011;8121;51.418;6.998;2024-01-15T02:13:06;11.70;;;8.13;;
16033;SDS011;8121;51.418;6.998;2024-01-15T02:18:08;22.57;;;11.50;;
16033;SDS011;8121;51.418;6.998;2024-01-15T02:23:11;12.97;;;7.93;;
16033;SDS011;8121;51.418;6.998;2024-01-15T02:28:14;23.63;;;10.20;;
16033;SDS011;8121;51.418;6.998;2024-01-15T02:33:16;24.80;;;8.23;;
16033;SDS011;8121;51.418;6.998;2024-01-15T02:38:19;18.90;;;7.47;;
16033;SDS011;8121;51.418;6.998;2024-01-15T02:43:21;18.40;;;8.10;;
16033;SDS011;8121;51.418;6.998;2024-01-15T02:48:22;19.50;;;7.90;;
16033;SDS011;8121;51.418;6.998;2024-01-15T02:53:25;15.47;;;8.43;;
16033;SDS011;8121;51.418;6.998;2024-01-15T02:58:27;12.27;;;7.37;;
16033;SDS011;8121;51.418;6.998;2024-01-15T03:03:28;16.60;;;8.67;;
16033;SDS011;8121;51.418;6.998;2024-01-15T03:08:31;11.80;;;6.90;;
16033;SDS011;8121;51.418;6.998;2024-01-15T03:13:35;13.50;;;5.40;;
16033;SDS011;8121;51.418;6.998;2024-01-15T03:18:37;16.47;;;7.20;;
16033;SDS011;8121;51.418;6.998;2024-01-15T03:23:40;5.03;;;4.20;;
16033;SDS011;8121;51.418;6.998;2024-01-15T03:28:41;15.60;;;8.40;;
16033;SDS011;8121;51.418;6.998;2024-01-15T03:33:43;18.43;;;7.63;;
16033;SDS011;8121;51.418;6.998;2024-01-15T03:38:45;18.07;;;9.13;;
16033;SDS011;8121;51.418;6.998;2024-01-15T03:43:47;23.13;;;9.47;;
16033;SDS011;8121;51.418;6.998;2024-01-15T03:48:48;15.40;;;8.00;;
16033;SDS011;8121;51.418;6.998;2024-01-15T03:53:51;10.83;;;6.37;;
16033;SDS011;8121;51.418;6.998;2024-01-15T03:58:53;15.80;;;8.20;;
16033;SDS011;8121;51.418;6.998;2024-01-15T04:03:54;17.83;;;10.17;;
16033;SDS011;8121;51.418;6.998;2024-01-15T04:08:57;17.90;;;7.60;;
16033;SDS011;8121;51.418;6.998;2024-01-15T04:13:59;16.07;;;7.57;;
16033;SDS011;8121;51.418;6.998;2024-01-15T04:19:01;8.97;;;6.00;;
16033;SDS011;8121;51.418;6.998;2024-01-15T04:24:04;27.90;;;10.53;;
16033;SDS011;8121;51.418;6.998;2024-01-15T04:29:05;14.50;;;7.90;;
16033;SDS011;8121;51.418;6.998;2024-01-15T04:34:07;8.97;;;6.13;;
16033;SDS011;8121;51.418;6.998;2024-01-15T04:39:10;13.13;;;8.17;;
16033;SDS011;8121;51.418;6.998;2024-01-15T04:44:11;17.60;;;8.00;;
16033;SDS011;8121;51.418;6.998;2024-01-15T04:49:13;7.23;;;5.10;;
16033;SDS011;8121;51.418;6.998;2024-01-15T04:54:16;31.40;;;8.53;;
16033;SDS011;8121;51.418;6.998;2024-01-15T04:59:18;6.00;;;4.90;;
16033;SDS011;8121;51.418;6.998;2024-01-15T05:04:19;27.00;;;7.60;;
16033;SDS011;8121;51.418;6.998;2024-01-15T05:09:22;10.67;;;6.67;;
16033;SDS011;8121;51.418;6.998;2024-01-15T05:14:23;9.70;;;6.90;;
16033;SDS011;8121;51.418;6.998;2024-01-15T05:19:25;9.20;;;5.80;;
16033;SDS011;8121;51.418;6.998;2024-01-15T05:24:28;8.13;;;6.30;;
16033;SDS011;8121;51.418;6.998;2024-01-15T05:29:29;13.17;;;8.67;;
16033;SDS011;8121;51.418;6.998;2024-01-15T05:34:31;12.80;;;7.00;;
16033;SDS011;8121;51.418;6.998;2024-01-15T05:39:33;10.97;;;6.83;;
16033;SDS011;8121;51.418;6.998;2024-01-15T05:44:35;12.33;;;6.60;;
16033;SDS011;8121;51.418;6.998;2024-01-15T05:49:36;9.67;;;6.90;;
16033;SDS011;8121;51.418;6.998;2024-01-15T05:54:40;15.00;;;7.90;;
16033;SDS011;8121;51.418;6.998;2024-01-15T05:59:42;14.90;;;6.10;;
16033;SDS011;8121;51.418;6.998;2024-01-15T06:04:45;10.00;;;5.37;;
16033;SDS011;8121;51.418;6.998;2024-01-15T06:09:48;10.00;;;6.07;;
16033;SDS011;8121;51.418;6.998;2024-01-15T06:14:49;9.07;;;5.30;;
16033;SDS011;8121;51.418;6.998;2024-01-15T06:19:51;12.13;;;7.23;;
16033;SDS011;8121;51.418;6.998;2024-01-15T06:24:53;14.60;;;8.20;;
16033;SDS011;8121;51.418;6.998;2024-01-15T06:29:55;6.93;;;5.87;;
16033;SDS011;8121;51.418;6.998;2024-01-15T06:34:56;20.07;;;7.70;;
16033;SDS011;8121;51.418;6.998;2024-01-15T06:39:59;8.70;;;5.33;;
16033;SDS011;8121;51.418;6.998;2024-01-15T06:45:01;10.63;;;5.87;;
16033;SDS011;8121;51.418;6.998;2024-01-15T06:50:02;12.30;;;6.37;;
16033;SDS011;8121;51.418;6.998;2024-01-15T06:55:08;4.77;;;4.30;;
16033;SDS011;8121;51.418;6.998;2024-01-15T07:00:10;4.53;;;3.63;;
16033;SDS011;8121;51.418;6.998;2024-01-15T07:05:12;11.30;;;5.40;;
16033;SDS011;8121;51.418;6.998;2024-01-15T07:10:14;13.77;;;6.80;;
16033;SDS011;8121;51.418;6.998;2024-01-15T07:15:16;12.33;;;5.80;;
16033;SDS011;8121;51.418;6.998;2024-01-15T07:20:18;6.93;;;2.93;;
16033;SDS011;8121;51.418;6.998;2024-01-15T07:25:21;2.07;;;1.87;;
16033;SDS011;8121;51.418;6.998;2024-01-15T07:30:22;4.83;;;2.10;;
16033;SDS011;8121;51.418;6.998;2024-01-15T07:35:24;2.50;;;2.40;;
16033;SDS011;8121;51.418;6.998;2024-01-15T07:40:26;3.33;;;2.47;;
16033;SDS011;8121;51.418;6.998;2024-01-15T07:45:28;2.90;;;2.47;;
16033;SDS011;8121;51.418;6.998;2024-01-15T07:50:30;5.90;;;5.30;;
16033;SDS011;8121;51.418;6.998;2024-01-15T07:55:33;10.13;;;5.80;;
16033;SDS011;8121;51.418;6.998;2024-01-15T08:00:34;8.57;;;6.07;;
16033;SDS011;8121;51.418;6.998;2024-01-15T08:05:36;7.13;;;5.87;;
16033;SDS011;8121;51.418;6.998;2024-01-15T08:10:39;8.47;;;4.93;;
16033;SDS011;8121;51.418;6.998;2024-01-15T08:15:40;5.17;;;4.40;;
16033;SDS011;8121;51.418;6.998;2024-01-15T08:20:42;8.47;;;5.00;;
16033;SDS011;8121;51.418;6.998;2024-01-15T08:25:45;6.23;;;5.37;;
16033;SDS011;8121;51.418;6.998;2024-01-15T08:30:46;4.90;;;4.43;;
16033;SDS011;8121;51.418;6.998;2024-01-15T08:35:47;5.30;;;4.27;;
16033;SDS011;8121;51.418;6.998;2024-01-15T08:40:50;13.27;;;7.00;;
16033;SDS011;8121;51.418;6.998;2024-01-15T08:45:53;6.83;;;6.17;;
16033;SDS011;8121;51.418;6.998;2024-01-15T08:50:55;18.13;;;5.73;;
16033;SDS011;8121;51.418;6.998;2024-01-15T08:55:58;6.20;;;5.30;;
16033;SDS011;8121;51.418;6.998;2024-01-15T09:00:59;5.90;;;5.10;;
16033;SDS011;8121;51.418;6.998;2024-01-15T09:06:01;3.60;;;3.30;;
16033;SDS011;8121;51.418;6.998;2024-01-15T09:11:04;2.90;;;2.40;;
16033;SDS011;8121;51.418;6.998;2024-01-15T09:16:05;2.30;;;2.17;;
16033;SDS011;8121;51.418;6.998;2024-01-15T09:21:07;2.60;;;2.50;;
16033;SDS011;8121;51.418;6.998;2024-01-15T09:26:10;2.53;;;2.33;;
16033;SDS011;8121;51.418;6.998;2024-01-15T09:31:11;1.70;;;1.60;;
16033;SDS011;8121;51.418;6.998;2024-01-15T09:36:13;2.77;;;2.63;;
16033;SDS011;8121;51.418;6.998;2024-01-15T09:41:15;2.50;;;2.30;;
16033;SDS011;8121;51.418;6.998;2024-01-15T09:46:17;3.20;;;2.00;;
16033;SDS011;8121;51.418;6.998;2024-01-15T09:51:19;3.83;;;2.60;;
16033;SDS011;8121;51.418;6.998;2024-01-15T09:56:22;5.83;;;1.73;;
16033;SDS011;8121;51.418;6.998;2024-01-15T10:01:24;1.73;;;1.63;;
16033;SDS011;8121;51.418;6.998;2024-01-15T10:06:26;1.47;;;1.30;;
16033;SDS011;8121;51.418;6.998;2024-01-15T10:11:30;1.93;;;1.80;;
16033;SDS011;8121;51.418;6.998;2024-01-15T10:16:31;1.80;;;1.70;;
16033;SDS011;8121;51.418;6.998;2024-01-15T10:21:33;1.77;;;1.67;;
16033;SDS011;8121;51.418;6.998;2024-01-15T10:26:37;1.57;;;1.47;;
16033;SDS011;8121;51.418;6.998;2024-01-15T10:31:38;1.73;;;1.63;;
16033;SDS011;8121;51.418;6.998;2024-01-15T10:36:40;2.13;;;2.03;;
16033;SDS011;8121;51.418;6.998;2024-01-15T10:41:43;2.80;;;1.50;;
16033;SDS011;8121;51.418;6.998;2024-01-15T10:46:45;1.97;;;1.87;;
16033;SDS011;8121;51.418;6.998;2024-01-15T10:51:47;1.60;;;1.50;;
16033;SDS011;8121;51.418;6.998;2024-01-15T10:56:50;1.60;;;1.40;;
16033;SDS011;8121;51.418;6.998;2024-01-15T11:01:52;3.00;;;1.30;;
16033;SDS011;8121;51.418;6.998;2024-01-15T11:06:55;1.43;;;1.33;;
16033;SDS011;8121;51.418;6.998;2024-01-15T11:12:07;3.37;;;2.10;;
16033;SDS011;8121;51.418;6.998;2024-01-15T11:17:11;1.30;;;1.20;;
16033;SDS011;8121;51.418;6.998;2024-01-15T11:27:50;2.10;;;2.00;;
16033;SDS011;8121;51.418;6.998;2024-01-15T11:32:52;2.17;;;2.00;;
16033;SDS011;8121;51.418;6.998;2024-01-15T11:37:57;2.77;;;2.03;;
16033;SDS011;8121;51.418;6.998;2024-01-15T11:43:00;7.77;;;2.23;;
16033;SDS011;8121;51.418;6.998;2024-01-15T11:48:11;1.80;;;1.70;;
16033;SDS011;8121;51.418;6.998;2024-01-15T11:53:16;2.20;;;2.10;;
16033;SDS011;8121;51.418;6.998;2024-01-15T11:58:20;3.77;;;2.10;;
16033;SDS011;8121;51.418;6.998;2024-01-15T12:03:21;7.30;;;2.13;;
16033;SDS011;8121;51.418;6.998;2024-01-15T12:08:23;2.50;;;1.90;;
16033;SDS011;8121;51.418;6.998;2024-01-15T12:13:28;1.50;;;1.40;;
16033;SDS011;8121;51.418;6.998;2024-01-15T12:18:29;1.90;;;1.80;;
16033;SDS011;8121;51.418;6.998;2024-01-15T12:23:30;3.77;;;1.87;;
16033;SDS011;8121;51.418;6.998;2024-01-15T12:28:33;2.50;;;1.70;;
16033;SDS011;8121;51.418;6.998;2024-01-15T12:33:35;3.50;;;1.50;;
16033;SDS011;8121;51.418;6.998;2024-01-15T12:38:37;1.43;;;1.23;;
16033;SDS011;8121;51.418;6.998;2024-01-15T12:43:41;1.67;;;1.20;;
16033;SDS011;8121;51.418;6.998;2024-01-15T12:48:42;1.57;;;1.00;;
16033;SDS011;8121;51.418;6.998;2024-01-15T12:53:44;0.80;;;0.80;;
16033;SDS011;8121;51.418;6.998;2024-01-15T12:58:46;3.73;;;1.30;;
16033;SDS011;8121;51.418;6.998;2024-01-15T13:03:48;2.40;;;1.47;;
16033;SDS011;8121;51.418;6.998;2024-01-15T13:08:49;1.40;;;1.13;;
16033;SDS011;8121;51.418;6.998;2024-01-15T13:13:52;1.53;;;1.30;;
16033;SDS011;8121;51.418;6.998;2024-01-15T13:18:53;1.10;;;1.00;;
16033;SDS011;8121;51.418;6.998;2024-01-15T13:23:55;2.23;;;1.80;;
16033;SDS011;8121;51.418;6.998;2024-01-15T13:28:58;2.47;;;1.90;;
16033;SDS011;8121;51.418;6.998;2024-01-15T13:34:00;6.40;;;1.57;;
16033;SDS011;8121;51.418;6.998;2024-01-15T13:39:01;3.27;;;1.43;;
16033;SDS011;8121;51.418;6.998;2024-01-15T13:44:04;4.43;;;1.90;;
16033;SDS011;8121;51.418;6.998;2024-01-15T13:49:06;2.20;;;2.00;;
16033;SDS011;8121;51.418;6.998;2024-01-15T13:54:09;8.27;;;1.90;;
16033;SDS011;8121;51.418;6.998;2024-01-15T13:59:12;1.80;;;1.70;;
16033;SDS011;8121;51.418;6.998;2024-01-15T14:04:13;1.37;;;1.03;;
16033;SDS011;8121;51.418;6.998;2024-01-15T14:09:15;2.83;;;1.33;;
16033;SDS011;8121;51.418;6.998;2024-01-15T14:14:17;3.83;;;1.97;;
16033;SDS011;8121;51.418;6.998;2024-01-15T14:19:19;1.83;;;1.67;;
16033;SDS011;8121;51.418;6.998;2024-01-15T14:24:21;1.50;;;1.40;;
16033;SDS011;8121;51.418;6.998;2024-01-15T14:29:24;1.47;;;1.30;;
16033;SDS011;8121;51.418;6.998;2024-01-15T14:34:26;1.40;;;1.30;;
16033;SDS011;8121;51.418;6.998;2024-01-15T14:39:28;3.83;;;2.30;;
16033;SDS011;8121;51.418;6.998;2024-01-15T14:44:31;1.50;;;1.40;;
16033;SDS011;8121;51.418;6.998;2024-01-15T14:49:35;0.93;;;0.90;;
16033;SDS011;8121;51.418;6.998;2024-01-15T14:54:36;3.83;;;1.10;;
16033;SDS011;8121;51.418;6.998;2024-01-15T14:59:39;1.10;;;1.10;;
16033;SDS011;8121;51.418;6.998;2024-01-15T15:04:40;1.37;;;1.20;;
16033;SDS011;8121;51.418;6.998;2024-01-15T15:09:42;2.17;;;1.40;;
16033;SDS011;8121;51.418;6.998;2024-01-15T15:14:45;1.17;;;1.10;;
16033;SDS011;8121;51.418;6.998;2024-01-15T15:19:46;1.80;;;1.70;;
16033;SDS011;8121;51.418;6.998;2024-01-15T15:24:48;2.77;;;1.67;;
16033;SDS011;8121;51.418;6.998;2024-01-15T15:29:51;1.10;;;1.00;;
16033;SDS011;8121;51.418;6.998;2024-01-15T15:34:52;1.07;;;1.07;;
16033;SDS011;8121;51.418;6.998;2024-01-15T15:39:54;2.50;;;1.33;;
16033;SDS011;8121;51.418;6.998;2024-01-15T15:44:57;1.10;;;1.00;;
16033;SDS011;8121;51.418;6.998;2024-01-15T15:49:58;2.93;;;1.20;;
16033;SDS011;8121;51.418;6.998;2024-01-15T15:55:00;2.00;;;1.70;;
16033;SDS011;8121;51.418;6.998;2024-01-15T16:00:04;1.23;;;1.13;;
16033;SDS011;8121;51.418;6.998;2024-01-15T16:05:07;1.37;;;1.27;;
16033;SDS011;8121;51.418;6.998;2024-01-15T16:10:09;1.70;;;1.37;;
16033;SDS011;8121;51.418;6.998;2024-01-15T16:15:18;1.20;;;1.20;;
16033;SDS011;8121;51.418;6.998;2024-01-15T16:20:20;1.50;;;1.40;;
16033;SDS011;8121;51.418;6.998;2024-01-15T16:25:22;1.40;;;1.30;;
16033;SDS011;8121;51.418;6.998;2024-01-15T16:30:24;3.17;;;1.40;;
16033;SDS011;8121;51.418;6.998;2024-01-15T16:35:26;1.53;;;1.43;;
16033;SDS011;8121;51.418;6.998;2024-01-15T16:40:27;2.40;;;1.47;;
16033;SDS011;8121;51.418;6.998;2024-01-15T16:45:30;3.53;;;1.73;;
16033;SDS011;8121;51.418;6.998;2024-01-15T16:50:32;2.13;;;1.70;;
16033;SDS011;8121;51.418;6.998;2024-01-15T16:55:33;3.60;;;2.50;;
16033;SDS011;8121;51.418;6.998;2024-01-15T17:00:36;8.23;;;2.33;;
16033;SDS011;8121;51.418;6.998;2024-01-15T17:05:38;2.40;;;2.20;;
16033;SDS011;8121;51.418;6.998;2024-01-15T17:10:39;1.70;;;1.60;;
16033;SDS011;8121;51.418;6.998;2024-01-15T17:15:42;3.20;;;2.23;;
16033;SDS011;8121;51.418;6.998;2024-01-15T17:20:43;3.50;;;2.70;;
16033;SDS011;8121;51.418;6.998;2024-01-15T17:25:46;2.50;;;2.40;;
16033;SDS011;8121;51.418;6.998;2024-01-15T17:30:49;5.67;;;2.87;;
16033;SDS011;8121;51.418;6.998;2024-01-15T17:35:50;2.43;;;2.27;;
16033;SDS011;8121;51.418;6.998;2024-01-15T17:40:53;4.17;;;3.67;;
16033;SDS011;8121;51.418;6.998;2024-01-15T17:45:55;3.03;;;2.73;;
16033;SDS011;8121;51.418;6.998;2024-01-15T17:51:00;6.10;;;3.33;;
16033;SDS011;8121;51.418;6.998;2024-01-15T17:56:03;2.97;;;2.70;;
16033;SDS011;8121;51.418;6.998;2024-01-15T18:01:06;4.70;;;3.13;;
16033;SDS011;8121;51.418;6.998;2024-01-15T18:06:07;4.83;;;2.30;;
16033;SDS011;8121;51.418;6.998;2024-01-15T18:11:14;11.37;;;2.17;;
16033;SDS011;8121;51.418;6.998;2024-01-15T18:16:17;6.53;;;2.17;;
16033;SDS011;8121;51.418;6.998;2024-01-15T18:21:22;5.53;;;2.47;;
16033;SDS011;8121;51.418;6.998;2024-01-15T18:26:23;2.40;;;2.30;;
16033;SDS011;8121;51.418;6.998;2024-01-15T18:31:26;2.97;;;2.77;;
16033;SDS011;8121;51.418;6.998;2024-01-15T18:36:28;6.27;;;3.07;;
16033;SDS011;8121;51.418;6.998;2024-01-15T18:41:29;2.73;;;2.27;;
16033;SDS011;8121;51.418;6.998;2024-01-15T18:46:32;2.40;;;1.73;;
16033;SDS011;8121;51.418;6.998;2024-01-15T18:51:33;3.03;;;2.37;;
16033;SDS011;8121;51.418;6.998;2024-01-15T18:56:39;3.00;;;2.53;;
16033;SDS011;8121;51.418;6.998;2024-01-15T19:01:42;3.73;;;2.10;;
16033;SDS011;8121;51.418;6.998;2024-01-15T19:06:44;7.70;;;1.93;;
16033;SDS011;8121;51.418;6.998;2024-01-15T19:11:47;3.33;;;2.73;;
16033;SDS011;8121;51.418;6.998;2024-01-15T19:16:49;18.47;;;2.67;;
16033;SDS011;8121;51.418;6.998;2024-01-15T19:21:51;6.07;;;2.87;;
16033;SDS011;8121;51.418;6.998;2024-01-15T19:26:53;7.30;;;3.00;;
16033;SDS011;8121;51.418;6.998;2024-01-15T19:31:56;5.10;;;2.03;;
16033;SDS011;8121;51.418;6.998;2024-01-15T19:36:58;11.03;;;2.33;;
16033;SDS011;8121;51.418;6.998;2024-01-15T19:42:01;7.30;;;2.70;;
16033;SDS011;8121;51.418;6.998;2024-01-15T19:47:04;4.23;;;2.20;;
16033;SDS011;8121;51.418;6.998;2024-01-15T19:52:06;6.33;;;2.23;;
16033;SDS011;8121;51.418;6.998;2024-01-15T19:57:07;2.97;;;1.87;;
16033;SDS011;8121;51.418;6.998;2024-01-15T20:02:10;2.90;;;1.93;;
16033;SDS011;8121;51.418;6.998;2024-01-15T20:07:12;7.97;;;1.87;;
16033;SDS011;8121;51.418;6.998;2024-01-15T20:12:14;6.50;;;2.27;;
16033;SDS011;8121;51.418;6.998;2024-01-15T20:17:17;5.50;;;1.87;;
16033;SDS011;8121;51.418;6.998;2024-01-15T20:22:19;7.80;;;2.53;;
16033;SDS011;8121;51.418;6.998;2024-01-15T20:27:20;2.60;;;1.60;;
16033;SDS011;8121;51.418;6.998;2024-01-15T20:32:23;9.50;;;2.80;;
16033;SDS011;8121;51.418;6.998;2024-01-15T20:37:25;3.47;;;2.60;;
16033;SDS011;8121;51.418;6.998;2024-01-15T20:42:26;5.07;;;2.33;;
16033;SDS011;8121;51.418;6.998;2024-01-15T20:47:29;5.13;;;3.57;;
16033;SDS011;8121;51.418;6.998;2024-01-15T20:52:32;3.50;;;1.30;;
16033;SDS011;8121;51.418;6.998;2024-01-15T20:57:35;8.50;;;2.03;;
16033;SDS011;8121;51.418;6.998;2024-01-15T21:02:38;2.50;;;1.73;;
16033;SDS011;8121;51.418;6.998;2024-01-15T21:07:39;7.50;;;2.33;;
16033;SDS011;8121;51.418;6.998;2024-01-15T21:12:41;4.30;;;2.40;;
16033;SDS011;8121;51.418;6.998;2024-01-15T21:17:44;3.80;;;2.17;;
16033;SDS011;8121;51.418;6.998;2024-01-15T21:22:46;4.63;;;2.33;;
16033;SDS011;8121;51.418;6.998;2024-01-15T21:27:48;2.60;;;2.20;;
16033;SDS011;8121;51.418;6.998;2024-01-15T21:32:53;13.40;;;2.30;;
16033;SDS011;8121;51.418;6.998;2024-01-15T21:37:55;4.30;;;2.17;;
16033;SDS011;8121;51.418;6.998;2024-01-15T21:42:57;3.53;;;2.50;;
16033;SDS011;8121;51.418;6.998;2024-01-15T21:48:00;6.70;;;3.00;;
16033;SDS011;8121;51.418;6.998;2024-01-15T21:53:02;4.97;;;3.10;;
16033;SDS011;8121;51.418;6.998;2024-01-15T21:58:04;5.00;;;3.00;;
16033;SDS011;8121;51.418;6.998;2024-01-15T22:03:07;6.63;;;2.67;;
16033;SDS011;8121;51.418;6.998;2024-01-15T22:08:09;9.93;;;3.93;;
16033;SDS011;8121;51.418;6.998;2024-01-15T22:13:10;4.00;;;2.53;;
16033;SDS011;8121;51.418;6.998;2024-01-15T22:18:13;2.90;;;2.63;;
16033;SDS011;8121;51.418;6.998;2024-01-15T22:23:15;3.80;;;2.13;;
16033;SDS011;8121;51.418;6.998;2024-01-15T22:28:16;3.47;;;2.40;;
16033;SDS011;8121;51.418;6.998;2024-01-15T22:33:19;3.30;;;2.67;;
16033;SDS011;8121;51.418;6.998;2024-01-15T22:38:21;5.13;;;3.07;;
16033;SDS011;8121;51.418;6.998;2024-01-15T22:43:23;13.33;;;3.67;;
16033;SDS011;8121;51.418;6.998;2024-01-15T22:48:26;5.00;;;2.93;;
16033;SDS011;8121;51.418;6.998;2024-01-15T22:53:27;3.23;;;2.27;;
16033;SDS011;8121;51.418;6.998;2024-01-15T22:58:29;2.40;;;2.30;;
16033;SDS011;8121;51.418;6.998;2024-01-15T23:03:32;3.43;;;2.50;;
16033;SDS011;8121;51.418;6.998;2024-01-15T23:08:33;7.53;;;3.20;;
16033;SDS011;8121;51.418;6.998;2024-01-15T23:13:35;3.83;;;2.50;;
16033;SDS011;8121;51.418;6.998;2024-01-15T23:18:38;5.80;;;2.60;;
16033;SDS011;8121;51.418;6.998;2024-01-15T23:23:39;4.90;;;2.50;;
16033;SDS011;8121;51.418;6.998;2024-01-15T23:28:41;3.97;;;2.97;;
16033;SDS011;8121;51.418;6.998;2024-01-15T23:33:44;2.73;;;2.53;;
16033;SDS011;8121;51.418;6.998;2024-01-15T23:38:46;3.60;;;3.30;;
16033;SDS011;8121;51.418;6.998;2024-01-15T23:43:48;3.53;;;2.60;;
16033;SDS011;8121;51.418;6.998;2024-01-15T23:48:51;2.40;;;2.27;;
16033;SDS011;8121;51.418;6.998;2024-01-15T23:53:52;3.33;;;3.03;;
16033;SDS011;8121;51.418;6.998;2024-01-15T23:58:54;3.20;;;2.90;;
